sensor_id;sensor_type;location;lat;lon;timestamp;temperature;humidity
78708;SHT31;68037;51.978;5.650;2023-04-01T00:02:19;11.7;83.2
78708;SHT31;68037;51.978;5.650;2023-04-01T00:04:48;11.7;83.2
78708;SHT31;68037;51.978;5.650;2023-04-01T00:07:19;11.7;82.8
78708;SHT31;68037;51.978;5.650;2023-04-01T00:09:50;11.7;82.5
78708;SHT31;68037;51.978;5.650;2023-04-01T00:12:19;11.7;82.4
78708;SHT31;68037;51.978;5.650;2023-04-01T00:14:49;11.7;82.8
78708;SHT31;68037;51.978;5.650;2023-04-01T00:17:18;11.7;82.9
78708;SHT31;68037;51.978;5.650;2023-04-01T00:19:48;11.7;82.7
78708;SHT31;68037;51.978;5.650;2023-04-01T00:22:20;11.7;83.0
78708;SHT31;68037;51.978;5.650;2023-04-01T00:24:49;11.7;83.2
78708;SHT31;68037;51.978;5.650;2023-04-01T00:27:19;11.8;83.4
78708;SHT31;68037;51.978;5.650;2023-04-01T00:29:48;11.9;82.7
78708;SHT31;68037;51.978;5.650;2023-04-01T00:32:18;11.9;82.2
78708;SHT31;68037;51.978;5.650;2023-04-01T00:34:49;11.9;81.9
78708;SHT31;68037;51.978;5.650;2023-04-01T00:37:20;11.9;81.8
78708;SHT31;68037;51.978;5.650;2023-04-01T00:39:52;11.9;81.8
78708;SHT31;68037;51.978;5.650;2023-04-01T00:42:22;11.9;82.0
78708;SHT31;68037;51.978;5.650;2023-04-01T00:44:54;11.9;81.8
78708;SHT31;68037;51.978;5.650;2023-04-01T00:47:27;11.9;81.9
78708;SHT31;68037;51.978;5.650;2023-04-01T00:49:57;11.8;81.9
78708;SHT31;68037;51.978;5.650;2023-04-01T00:52:27;11.8;82.1
78708;SHT31;68037;51.978;5.650;2023-04-01T00:55:00;11.8;82.2
78708;SHT31;68037;51.978;5.650;2023-04-01T00:57:34;11.8;82.2
78708;SHT31;68037;51.978;5.650;2023-04-01T01:00:10;11.8;82.5
78708;SHT31;68037;51.978;5.650;2023-04-01T01:02:43;11.8;82.8
78708;SHT31;68037;51.978;5.650;2023-04-01T01:05:14;11.8;82.6
78708;SHT31;68037;51.978;5.650;2023-04-01T01:07:53;11.8;83.0
78708;SHT31;68037;51.978;5.650;2023-04-01T01:10:31;11.8;82.9
78708;SHT31;68037;51.978;5.650;2023-04-01T01:13:11;11.8;82.9
78708;SHT31;68037;51.978;5.650;2023-04-01T01:15:47;11.8;82.7
78708;SHT31;68037;51.978;5.650;2023-04-01T01:18:29;11.8;82.3
78708;SHT31;68037;51.978;5.650;2023-04-01T01:21:50;11.8;82.5
78708;SHT31;68037;51.978;5.650;2023-04-01T01:24:35;11.8;82.5
78708;SHT31;68037;51.978;5.650;2023-04-01T01:27:10;11.8;82.2
78708;SHT31;68037;51.978;5.650;2023-04-01T01:29:51;11.8;82.2
78708;SHT31;68037;51.978;5.650;2023-04-01T01:32:58;11.8;81.7
78708;SHT31;68037;51.978;5.650;2023-04-01T01:35:33;11.8;81.6
78708;SHT31;68037;51.978;5.650;2023-04-01T01:38:08;11.8;81.6
78708;SHT31;68037;51.978;5.650;2023-04-01T01:40:42;11.8;81.4
78708;SHT31;68037;51.978;5.650;2023-04-01T01:43:15;11.8;81.3
78708;SHT31;68037;51.978;5.650;2023-04-01T01:45:52;11.8;81.2
78708;SHT31;68037;51.978;5.650;2023-04-01T01:48:26;11.8;81.2
78708;SHT31;68037;51.978;5.650;2023-04-01T01:50:56;11.7;81.1
78708;SHT31;68037;51.978;5.650;2023-04-01T01:53:26;11.7;81.3
78708;SHT31;68037;51.978;5.650;2023-04-01T01:55:56;11.7;81.0
78708;SHT31;68037;51.978;5.650;2023-04-01T01:58:30;11.7;80.8
78708;SHT31;68037;51.978;5.650;2023-04-01T02:01:05;11.7;81.2
78708;SHT31;68037;51.978;5.650;2023-04-01T02:03:37;11.7;80.8
78708;SHT31;68037;51.978;5.650;2023-04-01T02:06:13;11.6;81.6
78708;SHT31;68037;51.978;5.650;2023-04-01T02:09:00;11.7;81.8
78708;SHT31;68037;51.978;5.650;2023-04-01T02:11:42;11.8;81.0
78708;SHT31;68037;51.978;5.650;2023-04-01T02:14:15;11.9;79.9
78708;SHT31;68037;51.978;5.650;2023-04-01T02:16:53;11.9;79.9
78708;SHT31;68037;51.978;5.650;2023-04-01T02:19:27;11.9;80.1
78708;SHT31;68037;51.978;5.650;2023-04-01T02:22:02;11.9;80.0
78708;SHT31;68037;51.978;5.650;2023-04-01T02:24:35;11.9;80.5
78708;SHT31;68037;51.978;5.650;2023-04-01T02:27:09;11.8;80.4
78708;SHT31;68037;51.978;5.650;2023-04-01T02:29:39;11.8;80.4
78708;SHT31;68037;51.978;5.650;2023-04-01T02:32:10;11.8;80.7
78708;SHT31;68037;51.978;5.650;2023-04-01T02:34:41;11.8;80.5
78708;SHT31;68037;51.978;5.650;2023-04-01T02:37:13;11.7;80.8
78708;SHT31;68037;51.978;5.650;2023-04-01T02:39:44;11.7;81.2
78708;SHT31;68037;51.978;5.650;2023-04-01T02:42:15;11.7;81.3
78708;SHT31;68037;51.978;5.650;2023-04-01T02:44:44;11.6;81.2
78708;SHT31;68037;51.978;5.650;2023-04-01T02:47:14;11.6;81.8
78708;SHT31;68037;51.978;5.650;2023-04-01T02:49:43;11.7;81.7
78708;SHT31;68037;51.978;5.650;2023-04-01T02:52:22;11.8;81.6
78708;SHT31;68037;51.978;5.650;2023-04-01T02:54:55;11.9;80.8
78708;SHT31;68037;51.978;5.650;2023-04-01T02:57:28;12.1;79.6
78708;SHT31;68037;51.978;5.650;2023-04-01T03:00:00;12.1;79.8
78708;SHT31;68037;51.978;5.650;2023-04-01T03:02:30;12.2;79.3
78708;SHT31;68037;51.978;5.650;2023-04-01T03:05:01;12.3;79.0
78708;SHT31;68037;51.978;5.650;2023-04-01T03:07:30;12.4;78.0
78708;SHT31;68037;51.978;5.650;2023-04-01T03:10:00;12.5;77.3
78708;SHT31;68037;51.978;5.650;2023-04-01T03:12:29;12.5;77.2
78708;SHT31;68037;51.978;5.650;2023-04-01T03:14:59;12.5;76.6
78708;SHT31;68037;51.978;5.650;2023-04-01T03:17:28;12.4;77.0
78708;SHT31;68037;51.978;5.650;2023-04-01T03:19:58;12.3;77.1
78708;SHT31;68037;51.978;5.650;2023-04-01T03:22:28;12.2;77.7
78708;SHT31;68037;51.978;5.650;2023-04-01T03:24:57;12.1;78.0
78708;SHT31;68037;51.978;5.650;2023-04-01T03:27:27;12.1;78.3
78708;SHT31;68037;51.978;5.650;2023-04-01T03:29:56;12.0;78.4
78708;SHT31;68037;51.978;5.650;2023-04-01T03:32:26;11.9;79.1
78708;SHT31;68037;51.978;5.650;2023-04-01T03:34:56;11.8;79.3
78708;SHT31;68037;51.978;5.650;2023-04-01T03:37:26;11.8;79.4
78708;SHT31;68037;51.978;5.650;2023-04-01T03:39:55;11.7;79.7
78708;SHT31;68037;51.978;5.650;2023-04-01T03:42:25;11.6;80.2
78708;SHT31;68037;51.978;5.650;2023-04-01T03:44:54;11.6;80.5
78708;SHT31;68037;51.978;5.650;2023-04-01T03:47:24;11.6;80.8
78708;SHT31;68037;51.978;5.650;2023-04-01T03:49:53;11.5;81.2
78708;SHT31;68037;51.978;5.650;2023-04-01T03:52:27;11.6;81.7
78708;SHT31;68037;51.978;5.650;2023-04-01T03:54:57;11.7;81.5
78708;SHT31;68037;51.978;5.650;2023-04-01T03:57:26;11.7;80.2
78708;SHT31;68037;51.978;5.650;2023-04-01T03:59:56;11.7;80.3
78708;SHT31;68037;51.978;5.650;2023-04-01T04:02:25;11.7;80.1
78708;SHT31;68037;51.978;5.650;2023-04-01T04:04:55;11.7;80.2
78708;SHT31;68037;51.978;5.650;2023-04-01T04:07:26;11.6;80.7
78708;SHT31;68037;51.978;5.650;2023-04-01T04:09:55;11.6;80.6
78708;SHT31;68037;51.978;5.650;2023-04-01T04:12:25;11.6;80.6
78708;SHT31;68037;51.978;5.650;2023-04-01T04:14:54;11.6;80.4
78708;SHT31;68037;51.978;5.650;2023-04-01T04:17:24;11.5;81.0
78708;SHT31;68037;51.978;5.650;2023-04-01T04:19:54;11.5;81.2
78708;SHT31;68037;51.978;5.650;2023-04-01T04:22:23;11.5;81.3
78708;SHT31;68037;51.978;5.650;2023-04-01T04:24:53;11.5;81.4
78708;SHT31;68037;51.978;5.650;2023-04-01T04:27:22;11.5;81.6
78708;SHT31;68037;51.978;5.650;2023-04-01T04:29:52;11.5;81.9
78708;SHT31;68037;51.978;5.650;2023-04-01T04:32:21;11.5;81.8
78708;SHT31;68037;51.978;5.650;2023-04-01T04:34:51;11.5;81.7
78708;SHT31;68037;51.978;5.650;2023-04-01T04:37:20;11.5;81.7
78708;SHT31;68037;51.978;5.650;2023-04-01T04:39:50;11.5;81.9
78708;SHT31;68037;51.978;5.650;2023-04-01T04:42:19;11.5;81.9
78708;SHT31;68037;51.978;5.650;2023-04-01T04:44:48;11.5;81.8
78708;SHT31;68037;51.978;5.650;2023-04-01T04:47:20;11.5;81.7
78708;SHT31;68037;51.978;5.650;2023-04-01T04:49:49;11.5;81.5
78708;SHT31;68037;51.978;5.650;2023-04-01T04:52:19;11.5;81.7
78708;SHT31;68037;51.978;5.650;2023-04-01T04:54:49;11.5;81.8
78708;SHT31;68037;51.978;5.650;2023-04-01T04:57:19;11.5;82.0
78708;SHT31;68037;51.978;5.650;2023-04-01T04:59:48;11.5;82.1
78708;SHT31;68037;51.978;5.650;2023-04-01T05:02:18;11.5;82.4
78708;SHT31;68037;51.978;5.650;2023-04-01T05:04:47;11.5;82.4
78708;SHT31;68037;51.978;5.650;2023-04-01T05:07:17;11.5;82.2
78708;SHT31;68037;51.978;5.650;2023-04-01T05:09:46;11.5;82.2
78708;SHT31;68037;51.978;5.650;2023-04-01T05:12:16;11.5;82.5
78708;SHT31;68037;51.978;5.650;2023-04-01T05:14:48;11.5;82.7
78708;SHT31;68037;51.978;5.650;2023-04-01T05:17:17;11.5;82.6
78708;SHT31;68037;51.978;5.650;2023-04-01T05:19:47;11.6;82.5
78708;SHT31;68037;51.978;5.650;2023-04-01T05:22:17;11.6;82.2
78708;SHT31;68037;51.978;5.650;2023-04-01T05:24:47;11.6;82.3
78708;SHT31;68037;51.978;5.650;2023-04-01T05:27:18;11.6;82.1
78708;SHT31;68037;51.978;5.650;2023-04-01T05:29:48;11.6;82.0
78708;SHT31;68037;51.978;5.650;2023-04-01T05:32:17;11.7;82.0
78708;SHT31;68037;51.978;5.650;2023-04-01T05:34:50;11.7;82.6
78708;SHT31;68037;51.978;5.650;2023-04-01T05:37:20;11.8;82.0
78708;SHT31;68037;51.978;5.650;2023-04-01T05:39:50;11.8;81.7
78708;SHT31;68037;51.978;5.650;2023-04-01T05:42:19;11.8;81.6
78708;SHT31;68037;51.978;5.650;2023-04-01T05:44:49;11.8;81.6
78708;SHT31;68037;51.978;5.650;2023-04-01T05:47:18;11.8;81.6
78708;SHT31;68037;51.978;5.650;2023-04-01T05:49:48;11.8;81.6
78708;SHT31;68037;51.978;5.650;2023-04-01T05:52:17;11.8;81.7
78708;SHT31;68037;51.978;5.650;2023-04-01T05:54:47;11.8;82.2
78708;SHT31;68037;51.978;5.650;2023-04-01T05:57:16;11.8;81.8
78708;SHT31;68037;51.978;5.650;2023-04-01T05:59:46;11.8;81.9
78708;SHT31;68037;51.978;5.650;2023-04-01T06:02:18;11.8;82.0
78708;SHT31;68037;51.978;5.650;2023-04-01T06:04:47;11.8;82.0
78708;SHT31;68037;51.978;5.650;2023-04-01T06:07:18;11.8;82.1
78708;SHT31;68037;51.978;5.650;2023-04-01T06:09:47;11.8;82.2
78708;SHT31;68037;51.978;5.650;2023-04-01T06:12:32;11.8;82.3
78708;SHT31;68037;51.978;5.650;2023-04-01T06:15:15;11.8;82.3
78708;SHT31;68037;51.978;5.650;2023-04-01T06:20:56;11.8;82.3
78708;SHT31;68037;51.978;5.650;2023-04-01T06:23:51;11.8;82.4
78708;SHT31;68037;51.978;5.650;2023-04-01T06:26:36;11.8;82.6
78708;SHT31;68037;51.978;5.650;2023-04-01T06:29:22;11.8;82.6
78708;SHT31;68037;51.978;5.650;2023-04-01T06:33:06;11.8;82.6
78708;SHT31;68037;51.978;5.650;2023-04-01T06:35:51;11.8;82.6
78708;SHT31;68037;51.978;5.650;2023-04-01T06:38:48;11.8;82.8
78708;SHT31;68037;51.978;5.650;2023-04-01T06:41:50;11.8;82.8
78708;SHT31;68037;51.978;5.650;2023-04-01T06:44:28;11.8;82.7
78708;SHT31;68037;51.978;5.650;2023-04-01T06:47:07;11.8;82.8
78708;SHT31;68037;51.978;5.650;2023-04-01T06:49:51;11.8;82.4
78708;SHT31;68037;51.978;5.650;2023-04-01T06:52:28;11.8;82.5
78708;SHT31;68037;51.978;5.650;2023-04-01T06:55:04;11.8;82.5
78708;SHT31;68037;51.978;5.650;2023-04-01T06:57:41;11.8;82.5
78708;SHT31;68037;51.978;5.650;2023-04-01T07:00:22;11.8;82.4
78708;SHT31;68037;51.978;5.650;2023-04-01T07:03:05;11.9;82.5
78708;SHT31;68037;51.978;5.650;2023-04-01T07:05:35;11.9;82.5
78708;SHT31;68037;51.978;5.650;2023-04-01T07:08:11;11.9;82.4
78708;SHT31;68037;51.978;5.650;2023-04-01T07:10:47;11.9;82.4
78708;SHT31;68037;51.978;5.650;2023-04-01T07:13:22;11.9;82.7
78708;SHT31;68037;51.978;5.650;2023-04-01T07:16:03;11.9;82.7
78708;SHT31;68037;51.978;5.650;2023-04-01T07:18:47;12.0;83.1
78708;SHT31;68037;51.978;5.650;2023-04-01T07:21:26;12.1;82.2
78708;SHT31;68037;51.978;5.650;2023-04-01T07:24:03;12.2;81.2
78708;SHT31;68037;51.978;5.650;2023-04-01T07:26:34;12.3;80.9
78708;SHT31;68037;51.978;5.650;2023-04-01T07:29:10;12.3;80.7
78708;SHT31;68037;51.978;5.650;2023-04-01T07:31:59;12.3;80.7
78708;SHT31;68037;51.978;5.650;2023-04-01T07:34:41;12.3;80.7
78708;SHT31;68037;51.978;5.650;2023-04-01T07:37:17;12.2;80.9
78708;SHT31;68037;51.978;5.650;2023-04-01T07:40:03;12.2;80.9
78708;SHT31;68037;51.978;5.650;2023-04-01T07:42:48;12.2;81.2
78708;SHT31;68037;51.978;5.650;2023-04-01T07:45:30;12.2;81.1
78708;SHT31;68037;51.978;5.650;2023-04-01T07:48:13;12.2;80.9
78708;SHT31;68037;51.978;5.650;2023-04-01T07:50:53;12.2;81.0
78708;SHT31;68037;51.978;5.650;2023-04-01T07:53:31;12.2;81.1
78708;SHT31;68037;51.978;5.650;2023-04-01T07:56:07;12.1;81.3
78708;SHT31;68037;51.978;5.650;2023-04-01T07:58:52;12.1;81.7
78708;SHT31;68037;51.978;5.650;2023-04-01T08:01:30;12.1;81.4
78708;SHT31;68037;51.978;5.650;2023-04-01T08:05:33;12.1;81.3
78708;SHT31;68037;51.978;5.650;2023-04-01T08:08:16;12.1;81.2
78708;SHT31;68037;51.978;5.650;2023-04-01T08:10:52;12.1;81.1
78708;SHT31;68037;51.978;5.650;2023-04-01T08:13:33;12.1;81.4
78708;SHT31;68037;51.978;5.650;2023-04-01T08:16:13;12.1;81.4
78708;SHT31;68037;51.978;5.650;2023-04-01T08:18:54;12.1;81.6
78708;SHT31;68037;51.978;5.650;2023-04-01T08:21:28;12.1;81.6
78708;SHT31;68037;51.978;5.650;2023-04-01T08:24:08;12.1;81.7
78708;SHT31;68037;51.978;5.650;2023-04-01T08:26:45;12.1;81.9
78708;SHT31;68037;51.978;5.650;2023-04-01T08:29:20;12.1;82.1
78708;SHT31;68037;51.978;5.650;2023-04-01T08:31:58;12.1;82.0
78708;SHT31;68037;51.978;5.650;2023-04-01T08:34:35;12.1;82.2
78708;SHT31;68037;51.978;5.650;2023-04-01T08:37:11;12.1;82.3
78708;SHT31;68037;51.978;5.650;2023-04-01T08:39:45;12.1;82.4
78708;SHT31;68037;51.978;5.650;2023-04-01T08:42:39;12.1;82.7
78708;SHT31;68037;51.978;5.650;2023-04-01T08:45:49;12.1;82.3
78708;SHT31;68037;51.978;5.650;2023-04-01T08:50:52;12.2;82.3
78708;SHT31;68037;51.978;5.650;2023-04-01T08:53:43;12.2;82.7
78708;SHT31;68037;51.978;5.650;2023-04-01T08:56:20;12.2;82.7
78708;SHT31;68037;51.978;5.650;2023-04-01T08:59:19;12.2;82.3
78708;SHT31;68037;51.978;5.650;2023-04-01T09:02:22;12.3;82.6
78708;SHT31;68037;51.978;5.650;2023-04-01T09:05:25;12.4;81.7
78708;SHT31;68037;51.978;5.650;2023-04-01T09:08:10;12.4;81.0
78708;SHT31;68037;51.978;5.650;2023-04-01T09:10:58;12.5;81.1
78708;SHT31;68037;51.978;5.650;2023-04-01T09:13:44;12.4;81.0
78708;SHT31;68037;51.978;5.650;2023-04-01T09:16:33;12.4;81.0
78708;SHT31;68037;51.978;5.650;2023-04-01T09:19:35;12.4;81.3
78708;SHT31;68037;51.978;5.650;2023-04-01T09:22:31;12.4;81.1
78708;SHT31;68037;51.978;5.650;2023-04-01T09:25:23;12.4;81.6
78708;SHT31;68037;51.978;5.650;2023-04-01T09:28:05;12.4;81.7
78708;SHT31;68037;51.978;5.650;2023-04-01T09:31:23;12.4;81.8
78708;SHT31;68037;51.978;5.650;2023-04-01T09:34:24;12.4;82.5
78708;SHT31;68037;51.978;5.650;2023-04-01T09:37:25;12.4;82.3
78708;SHT31;68037;51.978;5.650;2023-04-01T09:40:47;12.4;82.2
78708;SHT31;68037;51.978;5.650;2023-04-01T09:43:23;12.4;82.4
78708;SHT31;68037;51.978;5.650;2023-04-01T09:46:26;12.4;82.0
78708;SHT31;68037;51.978;5.650;2023-04-01T09:49:25;12.5;82.0
78708;SHT31;68037;51.978;5.650;2023-04-01T09:52:13;12.5;81.9
78708;SHT31;68037;51.978;5.650;2023-04-01T09:55:02;12.5;81.5
78708;SHT31;68037;51.978;5.650;2023-04-01T10:03:10;12.6;81.6
78708;SHT31;68037;51.978;5.650;2023-04-01T10:09:53;12.7;81.9
78708;SHT31;68037;51.978;5.650;2023-04-01T10:14:09;12.7;81.9
78708;SHT31;68037;51.978;5.650;2023-04-01T10:17:03;12.8;81.9
78708;SHT31;68037;51.978;5.650;2023-04-01T10:26:19;13.1;80.9
78708;SHT31;68037;51.978;5.650;2023-04-01T10:29:30;13.2;80.7
78708;SHT31;68037;51.978;5.650;2023-04-01T10:32:29;13.4;80.8
78708;SHT31;68037;51.978;5.650;2023-04-01T10:40:03;13.7;80.3
78708;SHT31;68037;51.978;5.650;2023-04-01T10:44:19;13.9;79.2
78708;SHT31;68037;51.978;5.650;2023-04-01T10:49:41;14.1;77.0
78708;SHT31;68037;51.978;5.650;2023-04-01T10:52:46;14.3;76.2
78708;SHT31;68037;51.978;5.650;2023-04-01T10:55:37;14.3;75.6
78708;SHT31;68037;51.978;5.650;2023-04-01T10:58:50;14.4;75.3
78708;SHT31;68037;51.978;5.650;2023-04-01T11:11:57;14.5;74.8
78708;SHT31;68037;51.978;5.650;2023-04-01T11:14:49;14.5;74.5
78708;SHT31;68037;51.978;5.650;2023-04-01T11:17:56;14.5;74.3
78708;SHT31;68037;51.978;5.650;2023-04-01T11:23:53;14.4;74.2
78708;SHT31;68037;51.978;5.650;2023-04-01T11:26:32;14.3;74.0
78708;SHT31;68037;51.978;5.650;2023-04-01T11:29:29;14.2;75.0
78708;SHT31;68037;51.978;5.650;2023-04-01T11:32:07;14.2;75.8
78708;SHT31;68037;51.978;5.650;2023-04-01T11:34:57;14.2;75.6
78708;SHT31;68037;51.978;5.650;2023-04-01T11:37:41;14.2;75.7
78708;SHT31;68037;51.978;5.650;2023-04-01T11:40:25;14.2;75.1
78708;SHT31;68037;51.978;5.650;2023-04-01T11:43:07;14.2;75.5
78708;SHT31;68037;51.978;5.650;2023-04-01T11:45:45;14.2;75.1
78708;SHT31;68037;51.978;5.650;2023-04-01T11:48:27;14.2;75.2
78708;SHT31;68037;51.978;5.650;2023-04-01T11:51:25;14.2;74.9
78708;SHT31;68037;51.978;5.650;2023-04-01T11:54:03;14.1;75.2
78708;SHT31;68037;51.978;5.650;2023-04-01T11:57:09;14.1;75.4
78708;SHT31;68037;51.978;5.650;2023-04-01T12:00:03;14.1;75.5
78708;SHT31;68037;51.978;5.650;2023-04-01T12:02:47;14.0;75.7
78708;SHT31;68037;51.978;5.650;2023-04-01T12:05:34;13.9;75.9
78708;SHT31;68037;51.978;5.650;2023-04-01T12:08:23;13.8;76.6
78708;SHT31;68037;51.978;5.650;2023-04-01T12:11:03;13.8;76.7
78708;SHT31;68037;51.978;5.650;2023-04-01T12:13:45;13.7;77.0
78708;SHT31;68037;51.978;5.650;2023-04-01T12:16:40;13.7;77.6
78708;SHT31;68037;51.978;5.650;2023-04-01T12:19:17;13.6;77.4
78708;SHT31;68037;51.978;5.650;2023-04-01T12:26:42;13.7;77.6
78708;SHT31;68037;51.978;5.650;2023-04-01T12:29:37;13.7;76.8
78708;SHT31;68037;51.978;5.650;2023-04-01T12:32:20;13.7;76.9
78708;SHT31;68037;51.978;5.650;2023-04-01T12:35:01;13.7;76.9
78708;SHT31;68037;51.978;5.650;2023-04-01T12:37:41;13.6;77.8
78708;SHT31;68037;51.978;5.650;2023-04-01T12:40:45;13.6;78.1
78708;SHT31;68037;51.978;5.650;2023-04-01T12:44:15;13.7;78.1
78708;SHT31;68037;51.978;5.650;2023-04-01T12:47:04;13.7;77.7
78708;SHT31;68037;51.978;5.650;2023-04-01T12:49:50;13.7;77.5
78708;SHT31;68037;51.978;5.650;2023-04-01T12:52:25;13.7;77.5
78708;SHT31;68037;51.978;5.650;2023-04-01T12:55:21;13.7;77.4
78708;SHT31;68037;51.978;5.650;2023-04-01T12:58:14;13.6;77.7
78708;SHT31;68037;51.978;5.650;2023-04-01T13:05:18;13.6;78.0
78708;SHT31;68037;51.978;5.650;2023-04-01T13:08:00;13.7;78.3
78708;SHT31;68037;51.978;5.650;2023-04-01T13:10:51;13.7;78.6
78708;SHT31;68037;51.978;5.650;2023-04-01T13:13:48;13.7;78.5
78708;SHT31;68037;51.978;5.650;2023-04-01T13:16:24;13.8;78.0
78708;SHT31;68037;51.978;5.650;2023-04-01T13:19:07;13.8;77.2
78708;SHT31;68037;51.978;5.650;2023-04-01T13:21:50;13.8;77.9
78708;SHT31;68037;51.978;5.650;2023-04-01T13:24:31;13.8;78.4
78708;SHT31;68037;51.978;5.650;2023-04-01T13:27:11;13.8;78.5
78708;SHT31;68037;51.978;5.650;2023-04-01T13:29:52;13.8;78.4
78708;SHT31;68037;51.978;5.650;2023-04-01T13:32:30;13.8;78.3
78708;SHT31;68037;51.978;5.650;2023-04-01T13:35:10;13.8;78.0
78708;SHT31;68037;51.978;5.650;2023-04-01T13:37:54;13.8;77.9
78708;SHT31;68037;51.978;5.650;2023-04-01T13:42:01;13.8;78.1
78708;SHT31;68037;51.978;5.650;2023-04-01T13:44:40;13.7;79.4
78708;SHT31;68037;51.978;5.650;2023-04-01T13:47:30;13.8;78.9
78708;SHT31;68037;51.978;5.650;2023-04-01T13:50:23;13.8;79.3
78708;SHT31;68037;51.978;5.650;2023-04-01T13:55:54;13.8;77.9
78708;SHT31;68037;51.978;5.650;2023-04-01T13:58:46;13.8;78.0
78708;SHT31;68037;51.978;5.650;2023-04-01T14:01:28;13.8;78.3
78708;SHT31;68037;51.978;5.650;2023-04-01T14:05:53;13.7;78.6
78708;SHT31;68037;51.978;5.650;2023-04-01T14:08:51;13.7;79.1
78708;SHT31;68037;51.978;5.650;2023-04-01T14:11:30;13.7;79.4
78708;SHT31;68037;51.978;5.650;2023-04-01T14:14:14;13.7;79.8
78708;SHT31;68037;51.978;5.650;2023-04-01T14:21:12;13.7;79.8
78708;SHT31;68037;51.978;5.650;2023-04-01T14:27:23;13.7;79.0
78708;SHT31;68037;51.978;5.650;2023-04-01T14:30:10;13.7;78.4
78708;SHT31;68037;51.978;5.650;2023-04-01T14:32:49;13.7;78.5
78708;SHT31;68037;51.978;5.650;2023-04-01T14:35:35;13.7;79.0
78708;SHT31;68037;51.978;5.650;2023-04-01T14:38:22;13.7;79.2
78708;SHT31;68037;51.978;5.650;2023-04-01T14:40:59;13.6;79.2
78708;SHT31;68037;51.978;5.650;2023-04-01T14:43:47;13.6;79.1
78708;SHT31;68037;51.978;5.650;2023-04-01T14:50:09;13.6;79.6
78708;SHT31;68037;51.978;5.650;2023-04-01T14:52:54;13.6;79.8
78708;SHT31;68037;51.978;5.650;2023-04-01T14:55:31;13.6;80.4
78708;SHT31;68037;51.978;5.650;2023-04-01T14:58:09;13.6;80.8
78708;SHT31;68037;51.978;5.650;2023-04-01T15:00:48;13.6;81.3
78708;SHT31;68037;51.978;5.650;2023-04-01T15:03:22;13.6;80.4
78708;SHT31;68037;51.978;5.650;2023-04-01T15:05:57;13.7;80.0
78708;SHT31;68037;51.978;5.650;2023-04-01T15:08:33;13.7;80.2
78708;SHT31;68037;51.978;5.650;2023-04-01T15:11:28;13.7;80.2
78708;SHT31;68037;51.978;5.650;2023-04-01T15:14:30;13.8;79.9
78708;SHT31;68037;51.978;5.650;2023-04-01T15:17:22;13.8;79.6
78708;SHT31;68037;51.978;5.650;2023-04-01T15:20:10;13.9;79.4
78708;SHT31;68037;51.978;5.650;2023-04-01T15:22:55;13.9;79.1
78708;SHT31;68037;51.978;5.650;2023-04-01T15:25:38;14.0;79.3
78708;SHT31;68037;51.978;5.650;2023-04-01T15:28:22;14.1;79.3
78708;SHT31;68037;51.978;5.650;2023-04-01T15:31:02;14.1;78.4
78708;SHT31;68037;51.978;5.650;2023-04-01T15:33:50;14.1;78.2
78708;SHT31;68037;51.978;5.650;2023-04-01T15:36:28;14.2;77.7
78708;SHT31;68037;51.978;5.650;2023-04-01T15:39:11;14.1;76.3
78708;SHT31;68037;51.978;5.650;2023-04-01T15:42:04;14.1;76.5
78708;SHT31;68037;51.978;5.650;2023-04-01T15:47:42;14.0;77.6
78708;SHT31;68037;51.978;5.650;2023-04-01T15:50:47;13.9;78.3
78708;SHT31;68037;51.978;5.650;2023-04-01T15:53:37;13.9;77.7
78708;SHT31;68037;51.978;5.650;2023-04-01T15:56:26;13.8;77.9
78708;SHT31;68037;51.978;5.650;2023-04-01T15:59:09;13.8;78.3
78708;SHT31;68037;51.978;5.650;2023-04-01T16:01:53;13.8;78.4
78708;SHT31;68037;51.978;5.650;2023-04-01T16:05:34;13.8;78.6
78708;SHT31;68037;51.978;5.650;2023-04-01T16:08:34;13.8;79.0
78708;SHT31;68037;51.978;5.650;2023-04-01T16:11:17;13.8;78.1
78708;SHT31;68037;51.978;5.650;2023-04-01T16:14:06;13.9;77.9
78708;SHT31;68037;51.978;5.650;2023-04-01T16:17:11;14.0;77.4
78708;SHT31;68037;51.978;5.650;2023-04-01T16:19:51;14.1;76.3
78708;SHT31;68037;51.978;5.650;2023-04-01T16:22:33;14.2;75.4
78708;SHT31;68037;51.978;5.650;2023-04-01T16:25:20;14.2;75.1
78708;SHT31;68037;51.978;5.650;2023-04-01T16:28:08;14.2;75.8
78708;SHT31;68037;51.978;5.650;2023-04-01T16:30:45;14.3;75.1
78708;SHT31;68037;51.978;5.650;2023-04-01T16:33:23;14.3;74.6
78708;SHT31;68037;51.978;5.650;2023-04-01T16:35:59;14.3;74.7
78708;SHT31;68037;51.978;5.650;2023-04-01T16:38:39;14.2;74.3
78708;SHT31;68037;51.978;5.650;2023-04-01T16:41:17;14.2;74.5
78708;SHT31;68037;51.978;5.650;2023-04-01T16:43:51;14.1;74.6
78708;SHT31;68037;51.978;5.650;2023-04-01T16:46:31;14.1;74.8
78708;SHT31;68037;51.978;5.650;2023-04-01T16:49:33;14.0;75.3
78708;SHT31;68037;51.978;5.650;2023-04-01T16:52:34;14.0;75.3
78708;SHT31;68037;51.978;5.650;2023-04-01T16:55:16;13.9;76.0
78708;SHT31;68037;51.978;5.650;2023-04-01T16:57:51;13.9;76.0
78708;SHT31;68037;51.978;5.650;2023-04-01T17:00:27;13.9;75.9
78708;SHT31;68037;51.978;5.650;2023-04-01T17:03:08;13.9;75.3
78708;SHT31;68037;51.978;5.650;2023-04-01T17:06:03;13.8;74.9
78708;SHT31;68037;51.978;5.650;2023-04-01T17:09:11;13.8;75.3
78708;SHT31;68037;51.978;5.650;2023-04-01T17:11:51;13.9;75.0
78708;SHT31;68037;51.978;5.650;2023-04-01T17:14:30;13.9;75.0
78708;SHT31;68037;51.978;5.650;2023-04-01T17:17:19;13.9;74.8
78708;SHT31;68037;51.978;5.650;2023-04-01T17:20:09;13.9;74.6
78708;SHT31;68037;51.978;5.650;2023-04-01T17:22:49;13.8;74.3
78708;SHT31;68037;51.978;5.650;2023-04-01T17:25:36;13.8;73.8
78708;SHT31;68037;51.978;5.650;2023-04-01T17:28:24;13.8;74.2
78708;SHT31;68037;51.978;5.650;2023-04-01T17:31:05;13.8;74.1
78708;SHT31;68037;51.978;5.650;2023-04-01T17:34:28;13.8;74.1
78708;SHT31;68037;51.978;5.650;2023-04-01T17:37:52;13.9;73.2
78708;SHT31;68037;51.978;5.650;2023-04-01T17:40:43;13.9;73.1
78708;SHT31;68037;51.978;5.650;2023-04-01T17:43:24;13.9;72.3
78708;SHT31;68037;51.978;5.650;2023-04-01T17:46:00;13.9;71.7
78708;SHT31;68037;51.978;5.650;2023-04-01T17:48:45;13.9;72.0
78708;SHT31;68037;51.978;5.650;2023-04-01T17:51:25;14.0;71.5
78708;SHT31;68037;51.978;5.650;2023-04-01T17:54:08;14.0;71.3
78708;SHT31;68037;51.978;5.650;2023-04-01T17:56:57;14.0;71.1
78708;SHT31;68037;51.978;5.650;2023-04-01T17:59:36;14.0;70.9
78708;SHT31;68037;51.978;5.650;2023-04-01T18:02:19;13.9;70.8
78708;SHT31;68037;51.978;5.650;2023-04-01T18:05:05;13.9;70.6
78708;SHT31;68037;51.978;5.650;2023-04-01T18:08:13;13.9;70.9
78708;SHT31;68037;51.978;5.650;2023-04-01T18:11:00;13.9;70.4
78708;SHT31;68037;51.978;5.650;2023-04-01T18:13:53;13.9;69.9
78708;SHT31;68037;51.978;5.650;2023-04-01T18:16:33;13.8;70.8
78708;SHT31;68037;51.978;5.650;2023-04-01T18:19:16;13.8;70.5
78708;SHT31;68037;51.978;5.650;2023-04-01T18:21:53;13.8;70.3
78708;SHT31;68037;51.978;5.650;2023-04-01T18:24:30;13.8;70.9
78708;SHT31;68037;51.978;5.650;2023-04-01T18:27:09;13.8;70.1
78708;SHT31;68037;51.978;5.650;2023-04-01T18:29:48;13.8;70.9
78708;SHT31;68037;51.978;5.650;2023-04-01T18:32:27;13.7;70.1
78708;SHT31;68037;51.978;5.650;2023-04-01T18:35:09;13.7;70.8
78708;SHT31;68037;51.978;5.650;2023-04-01T18:37:43;13.6;71.0
78708;SHT31;68037;51.978;5.650;2023-04-01T18:40:19;13.6;70.3
78708;SHT31;68037;51.978;5.650;2023-04-01T18:43:04;13.6;71.1
78708;SHT31;68037;51.978;5.650;2023-04-01T18:45:45;13.5;70.9
78708;SHT31;68037;51.978;5.650;2023-04-01T18:48:37;13.5;71.3